Shanghai City, Illinois
Current Conditions -  °F | °C
As of 11:55 AM on Tuesday 21 Oct 2014 (Local Time) from KGBG Reporting Station
Clear Clear  
Wind Chill: 56°   Ceiling: Unl
Heat Index: 56°   Visibility: 10mi
Dew Point: 41°   Wind: 10mph
Humidity: 57%   Direction: 30°NNE
Pressure: 30.19"   Gusts: 17mph
Location:  41.0552°N, 90.5431°W
Report Text: KGBG 211655Z AUTO 03009G15KT 10SM CLR 13/05 A3019 RMK AO2 T01340051
Loading
Personal Weather Stations






























Interactive Weather Map
Tropical Storm Tracking
New forecast layout! Learn more

10-Day Weather Forecast

Advertisements
Track Severe Weather on mobile